Strona główna
METAR-TAF:

METAR-TAF

Lotnisko :

Port lotniczy Nakhon Phanom

Nakhon Phanom, Tajlandia

Szerokość geograficzna: 17-23-02N, Długość geograficzna: 104-38-35E, wysokość: 179 m

Aktualna obserwacja pogody

Raport powstał 1 godzina i 7 minut temu, godzina 04:00 UTC
Wiatr 15 kt od północny wschód, zmienny między północno-północny wschód i wschód
Temperatura 23°C
Wilgotność 31%
Ciśnienie 1022 hPa
Widzialność: 8000 m

METAR: VTUW 070400Z 05015KT 020V090 8000 NSC 23/05 Q1022 NOSIG

czas: 12:07 (05:07 UTC)

Prognoza

Raport powstał 6 godziny i 7 minut temu, godzina 23:00 UTC
Prognoza ważna od 07 godzina 00 UTC do 07 godzina 24 UTC
Wiatr 10 kt od wschodnio-północny wschód
Widzialność: 8000 m

TAF: VTUW 062300Z 0700/0724 06010KT 8000 NSC

Obserwacja i prognoza pogody dla ponad 4000 lotnisk (raport METAR i TAF).

Dostępne stacje oznaczono żółtymi i czerwonymi punktami na mapie.

Najedź kursorem aby zobaczyć nazwę stacji.

Kliknij aby zobaczyć obserwacje i prognozy pogody.

Aby zmienić mapę: kliknij na zielony przycisk z czarnym krzyżykiem, aby powiększyć; na zielony przycisk z myślnikiem, aby pomniejszyć; na zielone strzałki, aby przejść do map sąsiednich.


METAR-TAF: